createdAt,value
2023-05-01T00:02:24.300Z,7.38
2023-05-01T00:04:52.591Z,7.75
2023-05-01T00:07:20.991Z,7.20
2023-05-01T00:09:49.188Z,8.25
2023-05-01T00:12:17.585Z,7.13
2023-05-01T00:14:45.833Z,7.38
2023-05-01T00:17:13.859Z,8.25
2023-05-01T00:19:42.158Z,7.90
2023-05-01T00:22:10.634Z,8.20
2023-05-01T00:24:38.960Z,8.63
2023-05-01T00:27:07.084Z,9.82
2023-05-01T00:29:35.398Z,11.57
2023-05-01T00:32:03.626Z,11.27
2023-05-01T00:34:31.839Z,12.02
2023-05-01T00:37:00.350Z,15.80
2023-05-01T00:39:28.403Z,16.83
2023-05-01T00:41:56.549Z,12.63
2023-05-01T00:44:25.061Z,10.95
2023-05-01T00:46:53.192Z,10.35
2023-05-01T00:49:21.757Z,9.07
2023-05-01T00:51:51.955Z,9.23
2023-05-01T00:54:20.796Z,8.27
2023-05-01T00:56:49.343Z,8.00
2023-05-01T00:59:18.356Z,8.20
2023-05-01T01:01:47.045Z,8.88
2023-05-01T01:04:15.340Z,9.52
2023-05-01T01:07:07.910Z,9.90
2023-05-01T01:09:38.950Z,9.90
2023-05-01T01:12:51.750Z,10.95
2023-05-01T01:18:20.726Z,10.10
2023-05-01T01:21:04.304Z,9.57
2023-05-01T01:23:56.430Z,9.82
2023-05-01T01:26:58.342Z,9.20
2023-05-01T01:29:59.303Z,8.23
2023-05-01T01:33:01.151Z,7.38
2023-05-01T01:35:30.410Z,8.27
2023-05-01T01:38:07.202Z,7.60
2023-05-01T01:40:45.685Z,6.70
2023-05-01T01:43:17.655Z,6.75
2023-05-01T01:45:50.666Z,6.78
2023-05-01T01:48:25.914Z,9.07
2023-05-01T01:50:57.116Z,9.23
2023-05-01T01:53:27.264Z,7.47
2023-05-01T01:55:56.934Z,6.00
2023-05-01T01:58:26.860Z,7.78
2023-05-01T02:01:00.596Z,7.20
2023-05-01T02:03:29.847Z,8.70
2023-05-01T02:06:00.748Z,6.95
2023-05-01T02:08:31.847Z,5.78
2023-05-01T02:11:02.213Z,6.10
2023-05-01T02:13:33.303Z,5.45
2023-05-01T02:16:03.923Z,4.80
2023-05-01T02:18:32.881Z,5.18
2023-05-01T02:21:02.521Z,5.57
2023-05-01T02:23:32.524Z,6.72
2023-05-01T02:26:03.524Z,5.97
2023-05-01T02:28:32.648Z,6.45
2023-05-01T02:31:00.865Z,7.05
2023-05-01T02:33:29.238Z,7.95
2023-05-01T02:35:57.390Z,6.97
2023-05-01T02:38:25.834Z,8.38
2023-05-01T02:40:58.083Z,7.95
2023-05-01T02:43:29.389Z,9.05
2023-05-01T02:45:58.885Z,7.82
2023-05-01T02:48:29.113Z,8.38
2023-05-01T02:50:58.946Z,8.30
2023-05-01T02:53:27.161Z,7.55
2023-05-01T02:56:04.634Z,7.65
2023-05-01T02:58:33.151Z,7.55
2023-05-01T03:01:01.510Z,7.72
2023-05-01T03:03:29.837Z,9.30
2023-05-01T03:05:57.960Z,7.97
2023-05-01T03:08:26.274Z,8.55
2023-05-01T03:10:54.462Z,8.07
2023-05-01T03:13:22.624Z,8.00
2023-05-01T03:15:50.842Z,7.55
2023-05-01T03:18:19.008Z,8.60
2023-05-01T03:20:54.183Z,9.27
2023-05-01T03:23:23.128Z,9.35
2023-05-01T03:25:52.108Z,7.95
2023-05-01T03:28:20.291Z,8.27
2023-05-01T03:30:49.017Z,8.30
2023-05-01T03:33:17.366Z,8.75
2023-05-01T03:35:45.884Z,8.10
2023-05-01T03:38:14.828Z,6.80
2023-05-01T03:41:14.955Z,7.18
2023-05-01T03:44:06.313Z,8.97
2023-05-01T03:46:39.433Z,13.15
2023-05-01T03:49:10.324Z,15.38
2023-05-01T03:51:47.339Z,14.68
2023-05-01T03:54:15.692Z,15.35
2023-05-01T03:57:01.119Z,14.45
2023-05-01T03:59:29.343Z,15.32
2023-05-01T04:01:57.726Z,18.70
2023-05-01T04:04:28.364Z,18.63
2023-05-01T04:06:58.861Z,20.05
2023-05-01T04:09:27.007Z,17.27
2023-05-01T04:11:55.095Z,13.68
2023-05-01T04:14:23.418Z,10.98
2023-05-01T04:16:51.793Z,10.13
2023-05-01T04:19:19.996Z,8.57
2023-05-01T04:21:53.350Z,8.35
2023-05-01T04:24:21.730Z,7.78
2023-05-01T04:26:49.913Z,9.30
2023-05-01T04:29:17.979Z,8.20
2023-05-01T04:31:46.747Z,8.70
2023-05-01T04:34:15.015Z,8.35
2023-05-01T04:36:43.204Z,7.95
2023-05-01T04:39:11.527Z,8.27
2023-05-01T04:41:40.136Z,8.10
2023-05-01T04:44:08.386Z,8.82
2023-05-01T04:46:36.588Z,8.65
2023-05-01T04:49:05.345Z,7.70
2023-05-01T04:51:33.431Z,8.85
2023-05-01T04:54:01.993Z,8.18
2023-05-01T04:56:30.323Z,7.72
2023-05-01T04:59:01.737Z,6.95
2023-05-01T05:01:32.159Z,9.32
2023-05-01T05:04:00.691Z,6.97
2023-05-01T05:06:30.869Z,8.07
2023-05-01T05:08:59.746Z,7.20
2023-05-01T05:11:27.865Z,7.05
2023-05-01T05:14:05.371Z,7.22
2023-05-01T05:16:33.720Z,7.22
2023-05-01T05:19:02.462Z,7.75
2023-05-01T05:21:34.286Z,7.35
2023-05-01T05:24:04.228Z,8.10
2023-05-01T05:26:33.373Z,8.10
2023-05-01T05:29:04.596Z,7.97
2023-05-01T05:31:33.352Z,8.05
2023-05-01T05:34:01.647Z,7.07
2023-05-01T05:40:06.926Z,7.40
2023-05-01T05:42:45.507Z,8.20
2023-05-01T05:45:13.968Z,7.50
2023-05-01T05:47:42.145Z,8.50
2023-05-01T05:50:11.644Z,8.43
2023-05-01T05:52:40.738Z,9.23
2023-05-01T05:55:09.850Z,8.63
2023-05-01T05:57:38.590Z,7.85
2023-05-01T06:00:08.979Z,8.10
2023-05-01T06:02:49.907Z,7.55
2023-05-01T06:05:20.251Z,8.38
2023-05-01T06:07:48.422Z,7.97
2023-05-01T06:10:16.577Z,8.32
2023-05-01T06:12:45.706Z,8.00
2023-05-01T06:15:17.351Z,8.48
2023-05-01T06:17:52.443Z,8.73
2023-05-01T06:20:20.889Z,8.75
2023-05-01T06:22:51.330Z,8.88
2023-05-01T06:25:24.779Z,9.20
2023-05-01T06:27:53.255Z,8.70
2023-05-01T06:30:23.796Z,8.65
2023-05-01T06:32:52.121Z,9.45
2023-05-01T06:35:21.307Z,9.00
2023-05-01T06:37:49.623Z,8.32
2023-05-01T06:40:18.136Z,8.75
2023-05-01T06:42:46.553Z,9.02
2023-05-01T06:45:14.797Z,7.97
2023-05-01T06:47:43.143Z,8.20
2023-05-01T06:50:11.794Z,8.18
2023-05-01T06:52:40.798Z,10.40
2023-05-01T06:55:09.457Z,10.15
2023-05-01T06:57:37.693Z,10.57
2023-05-01T07:00:06.921Z,11.15
2023-05-01T07:02:35.392Z,10.60
2023-05-01T07:05:03.558Z,11.43
2023-05-01T07:07:31.911Z,10.95
2023-05-01T07:10:00.593Z,12.23
2023-05-01T07:12:29.922Z,11.20
2023-05-01T07:14:58.202Z,12.35
2023-05-01T07:17:26.717Z,11.75
2023-05-01T07:19:55.185Z,11.57
2023-05-01T07:22:23.512Z,10.95
2023-05-01T07:24:51.793Z,10.77
2023-05-01T07:27:19.845Z,10.77
2023-05-01T07:29:48.036Z,10.45
2023-05-01T07:32:16.393Z,10.75
2023-05-01T07:34:44.716Z,10.82
2023-05-01T07:37:12.936Z,10.85
2023-05-01T07:39:41.609Z,11.07
2023-05-01T07:42:10.026Z,10.57
2023-05-01T07:44:38.166Z,11.40
2023-05-01T07:47:06.933Z,10.73
2023-05-01T07:49:38.849Z,10.70
2023-05-01T07:52:08.205Z,12.57
2023-05-01T07:54:36.542Z,10.85
2023-05-01T07:57:07.302Z,10.77
2023-05-01T07:59:35.576Z,11.63
2023-05-01T08:02:03.709Z,11.70
2023-05-01T08:04:32.058Z,10.50
2023-05-01T08:07:00.742Z,10.55
2023-05-01T08:09:28.955Z,11.10
2023-05-01T08:11:57.173Z,11.05
2023-05-01T08:14:25.334Z,10.27
2023-05-01T08:16:53.483Z,10.90
2023-05-01T08:19:22.220Z,10.18
2023-05-01T08:21:50.512Z,10.93
2023-05-01T08:24:18.701Z,10.55
2023-05-01T08:26:47.261Z,10.65
2023-05-01T08:29:15.463Z,12.07
2023-05-01T08:31:43.739Z,11.50
2023-05-01T08:34:12.032Z,12.02
2023-05-01T08:36:40.345Z,11.23
2023-05-01T08:39:08.475Z,11.25
2023-05-01T08:41:38.228Z,11.32
2023-05-01T08:44:10.611Z,10.45
2023-05-01T08:46:47.134Z,10.75
2023-05-01T08:49:17.920Z,11.98
2023-05-01T08:51:47.785Z,11.15
2023-05-01T08:54:17.144Z,11.48
2023-05-01T08:56:52.166Z,12.20
2023-05-01T08:59:24.067Z,12.13
2023-05-01T09:01:52.838Z,11.68
2023-05-01T09:04:21.508Z,11.43
2023-05-01T09:06:50.793Z,12.00
2023-05-01T09:09:19.126Z,11.45
2023-05-01T09:11:47.479Z,12.95
2023-05-01T09:14:15.659Z,13.45
2023-05-01T09:16:43.937Z,13.43
2023-05-01T09:19:12.288Z,13.50
2023-05-01T09:21:40.747Z,12.18
2023-05-01T09:24:08.905Z,11.85
2023-05-01T09:26:40.975Z,12.00
2023-05-01T09:31:37.906Z,12.25
2023-05-01T09:34:06.935Z,11.65
2023-05-01T09:36:36.325Z,12.48
2023-05-01T09:39:04.994Z,12.50
2023-05-01T09:41:33.269Z,13.45
2023-05-01T09:44:01.581Z,11.98
2023-05-01T09:46:41.301Z,12.18
2023-05-01T09:49:09.669Z,12.65
2023-05-01T09:51:37.756Z,13.05
2023-05-01T09:54:17.622Z,13.90
2023-05-01T09:56:49.685Z,14.43
2023-05-01T10:01:48.134Z,13.25
2023-05-01T10:04:16.557Z,14.63
2023-05-01T10:06:44.956Z,13.35
2023-05-01T10:09:26.975Z,12.75
2023-05-01T10:11:56.997Z,13.07
2023-05-01T10:14:25.094Z,12.50
2023-05-01T10:16:53.681Z,12.32
2023-05-01T10:19:22.282Z,12.38
2023-05-01T10:21:50.502Z,11.77
2023-05-01T10:24:18.901Z,11.88
2023-05-01T10:26:49.709Z,12.82
2023-05-01T10:29:21.164Z,12.98
2023-05-01T10:31:49.440Z,12.65
2023-05-01T10:34:20.449Z,12.07
2023-05-01T10:37:01.521Z,14.15
2023-05-01T10:39:37.247Z,12.68
2023-05-01T10:42:10.074Z,11.82
2023-05-01T10:44:38.738Z,12.10
2023-05-01T10:47:25.534Z,12.23
2023-05-01T10:50:15.384Z,12.57
2023-05-01T10:53:11.270Z,9.85
2023-05-01T10:55:44.283Z,10.05
2023-05-01T10:58:13.229Z,9.45
2023-05-01T11:00:42.065Z,10.07
2023-05-01T11:03:22.054Z,7.43
2023-05-01T11:06:03.678Z,8.40
2023-05-01T11:08:37.452Z,6.50
2023-05-01T11:11:20.715Z,6.45
2023-05-01T11:14:07.789Z,7.88
2023-05-01T11:16:39.075Z,7.60
2023-05-01T11:19:46.062Z,7.13
2023-05-01T11:22:14.287Z,6.70
2023-05-01T11:24:42.720Z,16.40
2023-05-01T11:27:14.698Z,17.05
2023-05-01T11:29:45.915Z,7.43
2023-05-01T11:32:19.565Z,6.53
2023-05-01T11:34:49.045Z,6.70
2023-05-01T11:37:17.478Z,6.68
2023-05-01T11:39:52.942Z,7.32
2023-05-01T11:42:22.129Z,7.75
2023-05-01T11:45:11.260Z,7.28
2023-05-01T11:47:40.098Z,7.80
2023-05-01T11:50:09.880Z,7.82
2023-05-01T11:52:44.147Z,7.10
2023-05-01T11:55:12.346Z,8.75
2023-05-01T11:57:47.854Z,5.72
2023-05-01T12:00:17.704Z,4.15
2023-05-01T12:03:10.324Z,6.63
2023-05-01T12:05:40.664Z,6.63
2023-05-01T12:08:16.683Z,7.80
2023-05-01T12:10:47.029Z,6.68
2023-05-01T12:13:16.882Z,5.18
2023-05-01T12:15:51.359Z,6.25
2023-05-01T12:18:20.431Z,5.68
2023-05-01T12:20:53.013Z,6.75
2023-05-01T12:23:32.320Z,6.13
2023-05-01T12:26:00.669Z,6.40
2023-05-01T12:28:29.575Z,6.40
2023-05-01T12:31:04.827Z,5.68
2023-05-01T12:33:33.475Z,6.35
2023-05-01T12:36:11.444Z,7.43
2023-05-01T12:38:39.703Z,6.10
2023-05-01T12:41:08.152Z,5.35
2023-05-01T12:43:37.936Z,5.32
2023-05-01T12:46:06.905Z,4.43
2023-05-01T12:48:40.549Z,5.60
2023-05-01T12:51:09.046Z,4.60
2023-05-01T12:53:45.015Z,5.85
2023-05-01T12:56:23.187Z,5.40
2023-05-01T12:58:52.713Z,7.85
2023-05-01T13:01:28.435Z,7.18
2023-05-01T13:03:56.939Z,4.90
2023-05-01T13:06:33.440Z,4.28
2023-05-01T13:09:10.795Z,3.88
2023-05-01T13:11:39.454Z,13.25
2023-05-01T13:14:11.248Z,6.30
2023-05-01T13:16:47.611Z,6.63
2023-05-01T13:19:28.977Z,4.60
2023-05-01T13:21:58.320Z,4.97
2023-05-01T13:24:43.304Z,5.97
2023-05-01T13:27:13.135Z,4.20
2023-05-01T13:29:41.890Z,4.60
2023-05-01T13:32:12.335Z,4.28
2023-05-01T13:34:43.978Z,4.93
2023-05-01T13:37:12.532Z,5.45
2023-05-01T13:39:45.031Z,5.88
2023-05-01T13:42:13.916Z,4.82
2023-05-01T13:44:52.430Z,5.45
2023-05-01T13:47:21.062Z,4.80
2023-05-01T13:49:49.104Z,5.05
2023-05-01T13:52:19.050Z,6.32
2023-05-01T13:54:48.358Z,4.55
2023-05-01T13:57:17.098Z,4.07
2023-05-01T13:59:48.358Z,4.90
2023-05-01T14:02:30.283Z,5.03
2023-05-01T14:07:29.472Z,4.68
2023-05-01T14:09:59.615Z,4.72
2023-05-01T14:12:31.099Z,6.10
2023-05-01T14:15:00.590Z,5.00
2023-05-01T14:17:34.130Z,4.82
2023-05-01T14:20:03.086Z,4.82
2023-05-01T14:22:43.742Z,4.63
2023-05-01T14:25:35.029Z,4.40
2023-05-01T14:28:06.816Z,4.30
2023-05-01T14:33:13.832Z,4.53
2023-05-01T14:35:53.848Z,4.00
2023-05-01T14:38:22.976Z,3.72
2023-05-01T14:40:51.366Z,4.25
2023-05-01T14:43:21.144Z,3.92
2023-05-01T14:45:49.766Z,4.82
2023-05-01T14:48:23.225Z,4.90
2023-05-01T14:50:52.878Z,5.25
2023-05-01T14:53:21.286Z,4.97
2023-05-01T14:55:52.045Z,5.57
2023-05-01T14:58:20.421Z,4.80
2023-05-01T15:00:48.866Z,4.63
2023-05-01T15:03:17.266Z,4.53
2023-05-01T15:05:45.539Z,5.53
2023-05-01T15:08:14.025Z,7.10
2023-05-01T15:10:42.266Z,6.68
2023-05-01T15:13:10.511Z,5.88
2023-05-01T15:15:38.918Z,5.68
2023-05-01T15:18:07.331Z,6.63
2023-05-01T15:20:35.602Z,6.63
2023-05-01T15:23:03.885Z,5.55
2023-05-01T15:25:32.066Z,5.15
2023-05-01T15:28:00.233Z,5.93
2023-05-01T15:30:28.529Z,6.57
2023-05-01T15:32:57.300Z,5.72
2023-05-01T15:35:27.282Z,4.93
2023-05-01T15:37:55.483Z,6.18
2023-05-01T15:40:23.817Z,5.20
2023-05-01T15:42:51.910Z,5.72
2023-05-01T15:45:20.277Z,5.07
2023-05-01T15:47:48.499Z,4.28
2023-05-01T15:50:16.700Z,3.40
2023-05-01T15:52:45.027Z,4.78
2023-05-01T15:55:13.659Z,4.72
2023-05-01T15:57:41.923Z,4.57
2023-05-01T16:00:10.458Z,4.70
2023-05-01T16:02:38.709Z,4.82
2023-05-01T16:05:07.476Z,4.60
2023-05-01T16:07:35.738Z,4.22
2023-05-01T16:10:04.959Z,4.68
2023-05-01T16:12:33.343Z,6.10
2023-05-01T16:15:07.992Z,4.28
2023-05-01T16:17:44.237Z,4.60
2023-05-01T16:20:14.655Z,4.95
2023-05-01T16:22:43.952Z,4.28
2023-05-01T16:25:13.135Z,4.53
2023-05-01T16:27:45.000Z,5.40
2023-05-01T16:30:14.125Z,3.72
2023-05-01T16:32:43.275Z,4.10
2023-05-01T16:35:12.295Z,5.22
2023-05-01T16:37:40.796Z,5.13
2023-05-01T16:40:09.631Z,4.35
2023-05-01T16:42:37.820Z,5.90
2023-05-01T16:45:08.708Z,5.55
2023-05-01T16:47:37.200Z,4.43
2023-05-01T16:50:09.993Z,3.88
2023-05-01T16:52:38.320Z,4.35
2023-05-01T16:55:06.941Z,3.72
2023-05-01T16:57:35.160Z,5.18
2023-05-01T17:00:03.697Z,4.20
2023-05-01T17:02:32.241Z,4.18
2023-05-01T17:05:00.487Z,3.88
2023-05-01T17:07:28.910Z,4.35
2023-05-01T17:09:57.307Z,5.10
2023-05-01T17:12:25.983Z,3.72
2023-05-01T17:14:54.125Z,3.35
2023-05-01T17:17:22.633Z,5.00
2023-05-01T17:19:51.044Z,4.72
2023-05-01T17:22:19.341Z,4.93
2023-05-01T17:24:47.388Z,6.57
2023-05-01T17:27:15.577Z,4.63
2023-05-01T17:29:43.914Z,4.53
2023-05-01T17:32:14.449Z,4.43
2023-05-01T17:34:46.424Z,4.20
2023-05-01T17:37:14.536Z,4.15
2023-05-01T17:39:42.902Z,5.90
2023-05-01T17:42:11.313Z,3.72
2023-05-01T17:44:39.500Z,3.90
2023-05-01T17:47:07.705Z,4.13
2023-05-01T17:49:36.182Z,4.63
2023-05-01T17:52:04.509Z,3.20
2023-05-01T17:54:32.747Z,3.75
2023-05-01T17:57:01.112Z,4.30
2023-05-01T17:59:29.235Z,4.43
2023-05-01T18:01:57.676Z,5.18
2023-05-01T18:04:26.174Z,4.22
2023-05-01T18:06:54.524Z,5.65
2023-05-01T18:09:23.148Z,5.20
2023-05-01T18:11:51.397Z,6.22
2023-05-01T18:14:19.612Z,6.63
2023-05-01T18:16:48.052Z,7.43
2023-05-01T18:19:16.448Z,7.38
2023-05-01T18:21:44.771Z,7.43
2023-05-01T18:24:13.084Z,9.85
2023-05-01T18:26:41.269Z,7.35
2023-05-01T18:29:09.552Z,6.05
2023-05-01T18:31:37.884Z,6.35
2023-05-01T18:34:06.553Z,18.48
2023-05-01T18:36:34.749Z,8.70
2023-05-01T18:39:03.025Z,5.60
2023-05-01T18:41:31.422Z,4.80
2023-05-01T18:43:59.503Z,8.40
2023-05-01T18:46:27.944Z,14.65
2023-05-01T18:49:02.428Z,11.65
2023-05-01T18:51:30.910Z,9.07
2023-05-01T18:53:59.053Z,7.20
2023-05-01T18:56:27.347Z,8.20
2023-05-01T18:58:55.818Z,9.25
2023-05-01T19:01:24.119Z,7.43
2023-05-01T19:03:52.318Z,10.27
2023-05-01T19:06:20.608Z,6.25
2023-05-01T19:08:49.050Z,14.25
2023-05-01T19:11:17.267Z,22.25
2023-05-01T19:13:45.500Z,18.75
2023-05-01T19:16:14.002Z,12.63
2023-05-01T19:18:42.266Z,10.73
2023-05-01T19:21:11.265Z,13.40
2023-05-01T19:23:39.522Z,12.90
2023-05-01T19:26:07.928Z,10.82
2023-05-01T19:28:38.312Z,11.68
2023-05-01T19:31:07.147Z,8.82
2023-05-01T19:33:35.473Z,11.57
2023-05-01T19:36:03.706Z,18.92
2023-05-01T19:38:32.297Z,11.82
2023-05-01T19:41:00.583Z,7.75
2023-05-01T19:43:28.777Z,8.10
2023-05-01T19:45:57.178Z,7.72
2023-05-01T19:48:25.338Z,10.77
2023-05-01T19:50:53.618Z,10.27
2023-05-01T19:53:23.362Z,10.38
2023-05-01T19:55:52.299Z,11.73
2023-05-01T19:58:20.902Z,11.70
2023-05-01T20:00:49.196Z,13.73
2023-05-01T20:03:17.756Z,32.65
2023-05-01T20:07:51.014Z,9.75
2023-05-01T20:10:19.652Z,33.10
2023-05-01T20:12:50.541Z,31.98
2023-05-01T20:15:22.257Z,33.85
2023-05-01T20:17:51.893Z,48.92
2023-05-01T20:20:23.883Z,13.20
2023-05-01T20:23:09.733Z,8.35
2023-05-01T20:25:38.155Z,7.18
2023-05-01T20:28:07.741Z,8.10
2023-05-01T20:30:41.595Z,8.52
2023-05-01T20:33:09.864Z,15.18
2023-05-01T20:35:38.510Z,10.95
2023-05-01T20:38:06.796Z,7.10
2023-05-01T20:40:36.730Z,6.32
2023-05-01T20:43:08.381Z,6.47
2023-05-01T20:45:38.288Z,5.43
2023-05-01T20:48:07.886Z,5.22
2023-05-01T20:50:37.297Z,7.05
2023-05-01T20:53:07.057Z,7.22
2023-05-01T20:55:35.265Z,6.05
2023-05-01T20:58:03.509Z,6.95
2023-05-01T21:00:31.685Z,7.28
2023-05-01T21:03:00.052Z,6.75
2023-05-01T21:05:28.742Z,9.05
2023-05-01T21:07:59.744Z,7.70
2023-05-01T21:10:28.258Z,8.98
2023-05-01T21:12:56.558Z,9.25
2023-05-01T21:15:25.063Z,7.18
2023-05-01T21:17:53.554Z,6.18
2023-05-01T21:20:32.945Z,11.00
2023-05-01T21:23:04.138Z,9.35
2023-05-01T21:25:33.642Z,9.40
2023-05-01T21:28:02.840Z,9.20
2023-05-01T21:30:33.023Z,7.20
2023-05-01T21:33:08.730Z,10.95
2023-05-01T21:35:37.016Z,17.15
2023-05-01T21:38:05.285Z,15.32
2023-05-01T21:40:46.198Z,8.20
2023-05-01T21:43:14.501Z,7.65
2023-05-01T21:45:45.938Z,8.85
2023-05-01T21:48:20.347Z,11.77
2023-05-01T21:50:51.619Z,13.63
2023-05-01T21:53:19.998Z,10.13
2023-05-01T21:55:48.145Z,27.33
2023-05-01T21:58:16.871Z,13.85
2023-05-01T22:00:46.661Z,16.08
2023-05-01T22:03:18.241Z,11.45
2023-05-01T22:05:46.833Z,8.45
2023-05-01T22:08:15.124Z,10.25
2023-05-01T22:10:43.637Z,9.15
2023-05-01T22:13:11.840Z,6.53
2023-05-01T22:15:40.113Z,6.13
2023-05-01T22:18:08.350Z,5.70
2023-05-01T22:20:36.657Z,5.35
2023-05-01T22:23:04.867Z,6.35
2023-05-01T22:25:33.073Z,6.22
2023-05-01T22:28:01.348Z,7.45
2023-05-01T22:30:29.581Z,8.25
2023-05-01T22:32:57.918Z,5.53
2023-05-01T22:35:26.225Z,4.72
2023-05-01T22:37:54.667Z,5.97
2023-05-01T22:40:22.812Z,5.72
2023-05-01T22:42:51.149Z,5.43
2023-05-01T22:45:19.595Z,5.78
2023-05-01T22:47:47.734Z,6.28
2023-05-01T22:50:16.208Z,6.00
2023-05-01T22:52:46.488Z,5.53
2023-05-01T22:55:15.046Z,6.35
2023-05-01T22:57:43.285Z,7.80
2023-05-01T23:00:13.852Z,8.02
2023-05-01T23:02:42.035Z,9.60
2023-05-01T23:05:10.519Z,9.35
2023-05-01T23:07:38.925Z,7.95
2023-05-01T23:10:07.498Z,8.02
2023-05-01T23:12:35.941Z,7.63
2023-05-01T23:15:04.141Z,8.88
2023-05-01T23:17:35.128Z,9.05
2023-05-01T23:20:06.387Z,11.37
2023-05-01T23:22:36.588Z,10.07
2023-05-01T23:25:07.055Z,15.77
2023-05-01T23:27:35.961Z,13.80
2023-05-01T23:30:06.357Z,38.90
2023-05-01T23:32:34.963Z,69.78
2023-05-01T23:35:13.258Z,42.55
2023-05-01T23:37:41.834Z,27.17
2023-05-01T23:40:10.209Z,11.50
2023-05-01T23:42:40.014Z,7.05
2023-05-01T23:45:09.087Z,6.90
2023-05-01T23:47:38.023Z,8.48
2023-05-01T23:50:07.316Z,16.60
2023-05-01T23:52:35.777Z,16.50
2023-05-01T23:55:04.006Z,23.55
2023-05-01T23:57:32.173Z,14.25
